sensor_id;sensor_type;location;lat;lon;timestamp;temperature;humidity
31391;DHT22;18022;45.492;11.548;2024-03-23T00:53:11;11.20;99.90
31391;DHT22;18022;45.492;11.548;2024-03-23T00:55:37;11.20;99.90
31391;DHT22;18022;45.492;11.548;2024-03-23T00:58:02;11.10;99.90
31391;DHT22;18022;45.492;11.548;2024-03-23T01:00:28;11.10;99.90
31391;DHT22;18022;45.492;11.548;2024-03-23T01:02:54;10.80;99.90
31391;DHT22;18022;45.492;11.548;2024-03-23T01:05:19;10.80;99.90
31391;DHT22;18022;45.492;11.548;2024-03-23T01:07:45;10.80;99.90
31391;DHT22;18022;45.492;11.548;2024-03-23T01:10:11;10.70;99.90
31391;DHT22;18022;45.492;11.548;2024-03-23T01:12:36;10.60;99.90
31391;DHT22;18022;45.492;11.548;2024-03-23T01:15:02;10.60;99.90
31391;DHT22;18022;45.492;11.548;2024-03-23T01:17:28;10.50;99.90
31391;DHT22;18022;45.492;11.548;2024-03-23T01:19:53;10.50;99.90
31391;DHT22;18022;45.492;11.548;2024-03-23T01:22:19;10.40;99.90
31391;DHT22;18022;45.492;11.548;2024-03-23T01:24:45;10.40;99.90
31391;DHT22;18022;45.492;11.548;2024-03-23T01:27:10;10.50;99.90
31391;DHT22;18022;45.492;11.548;2024-03-23T01:29:36;10.60;99.90
31391;DHT22;18022;45.492;11.548;2024-03-23T01:32:01;10.60;99.90
31391;DHT22;18022;45.492;11.548;2024-03-23T01:34:27;10.70;99.90
31391;DHT22;18022;45.492;11.548;2024-03-23T01:36:53;10.50;99.90
31391;DHT22;18022;45.492;11.548;2024-03-23T01:39:19;10.70;99.90
31391;DHT22;18022;45.492;11.548;2024-03-23T01:41:44;10.80;99.90
31391;DHT22;18022;45.492;11.548;2024-03-23T01:44:10;10.90;99.90
31391;DHT22;18022;45.492;11.548;2024-03-23T01:46:37;10.90;99.90
31391;DHT22;18022;45.492;11.548;2024-03-23T01:49:06;11.00;99.90
31391;DHT22;18022;45.492;11.548;2024-03-23T01:51:32;10.70;99.90
31391;DHT22;18022;45.492;11.548;2024-03-23T01:53:59;10.60;99.90
31391;DHT22;18022;45.492;11.548;2024-03-23T01:56:31;10.70;99.90
31391;DHT22;18022;45.492;11.548;2024-03-23T01:58:59;10.70;99.90
31391;DHT22;18022;45.492;11.548;2024-03-23T02:01:24;10.80;99.90
31391;DHT22;18022;45.492;11.548;2024-03-23T02:03:50;10.90;99.90
31391;DHT22;18022;45.492;11.548;2024-03-23T02:06:16;10.80;99.90
31391;DHT22;18022;45.492;11.548;2024-03-23T02:08:41;10.50;99.90
31391;DHT22;18022;45.492;11.548;2024-03-23T02:11:07;10.30;99.90
31391;DHT22;18022;45.492;11.548;2024-03-23T02:13:33;10.30;99.90
31391;DHT22;18022;45.492;11.548;2024-03-23T02:15:59;10.20;99.90
31391;DHT22;18022;45.492;11.548;2024-03-23T02:18:24;10.30;99.90
31391;DHT22;18022;45.492;11.548;2024-03-23T02:20:50;10.40;99.90
31391;DHT22;18022;45.492;11.548;2024-03-23T02:23:16;10.40;99.90
31391;DHT22;18022;45.492;11.548;2024-03-23T02:25:43;10.50;99.90
31391;DHT22;18022;45.492;11.548;2024-03-23T02:28:09;10.40;99.90
31391;DHT22;18022;45.492;11.548;2024-03-23T02:30:35;10.50;99.90
31391;DHT22;18022;45.492;11.548;2024-03-23T02:33:01;10.60;99.90
31391;DHT22;18022;45.492;11.548;2024-03-23T02:35:26;10.60;99.90
31391;DHT22;18022;45.492;11.548;2024-03-23T02:37:52;10.60;99.90
31391;DHT22;18022;45.492;11.548;2024-03-23T02:40:19;10.50;99.90
31391;DHT22;18022;45.492;11.548;2024-03-23T02:42:46;10.40;99.90
31391;DHT22;18022;45.492;11.548;2024-03-23T02:45:11;10.30;99.90
31391;DHT22;18022;45.492;11.548;2024-03-23T02:47:37;10.10;99.90
31391;DHT22;18022;45.492;11.548;2024-03-23T02:50:03;10.00;99.90
31391;DHT22;18022;45.492;11.548;2024-03-23T02:52:29;10.00;99.90
31391;DHT22;18022;45.492;11.548;2024-03-23T02:54:55;10.00;99.90
31391;DHT22;18022;45.492;11.548;2024-03-23T02:57:21;10.00;99.90
31391;DHT22;18022;45.492;11.548;2024-03-23T02:59:46;10.00;99.90
31391;DHT22;18022;45.492;11.548;2024-03-23T03:02:13;10.10;99.90
31391;DHT22;18022;45.492;11.548;2024-03-23T03:04:39;10.10;99.90
31391;DHT22;18022;45.492;11.548;2024-03-23T03:07:04;10.20;99.90
31391;DHT22;18022;45.492;11.548;2024-03-23T03:09:30;10.10;99.90
31391;DHT22;18022;45.492;11.548;2024-03-23T03:11:56;10.20;99.90
31391;DHT22;18022;45.492;11.548;2024-03-23T03:14:21;10.20;99.90
31391;DHT22;18022;45.492;11.548;2024-03-23T03:16:47;10.30;99.90
31391;DHT22;18022;45.492;11.548;2024-03-23T03:19:13;10.20;99.90
31391;DHT22;18022;45.492;11.548;2024-03-23T03:21:39;9.80;99.90
31391;DHT22;18022;45.492;11.548;2024-03-23T03:24:06;9.60;99.90
31391;DHT22;18022;45.492;11.548;2024-03-23T03:26:32;9.50;99.90
31391;DHT22;18022;45.492;11.548;2024-03-23T03:28:57;9.70;99.90
31391;DHT22;18022;45.492;11.548;2024-03-23T03:31:23;9.70;99.90
31391;DHT22;18022;45.492;11.548;2024-03-23T03:33:50;9.60;99.90
31391;DHT22;18022;45.492;11.548;2024-03-23T03:36:16;9.50;99.90
31391;DHT22;18022;45.492;11.548;2024-03-23T03:38:42;9.50;99.90
31391;DHT22;18022;45.492;11.548;2024-03-23T03:41:07;9.60;99.90
31391;DHT22;18022;45.492;11.548;2024-03-23T03:43:33;9.50;99.90
31391;DHT22;18022;45.492;11.548;2024-03-23T03:45:59;9.50;99.90
31391;DHT22;18022;45.492;11.548;2024-03-23T03:48:26;9.60;99.90
31391;DHT22;18022;45.492;11.548;2024-03-23T03:50:52;9.60;99.90
31391;DHT22;18022;45.492;11.548;2024-03-23T03:53:19;9.50;99.90
31391;DHT22;18022;45.492;11.548;2024-03-23T03:55:44;9.50;99.90
31391;DHT22;18022;45.492;11.548;2024-03-23T03:58:10;9.60;99.90
31391;DHT22;18022;45.492;11.548;2024-03-23T04:00:35;9.60;99.90
31391;DHT22;18022;45.492;11.548;2024-03-23T04:03:02;9.60;99.90
31391;DHT22;18022;45.492;11.548;2024-03-23T04:05:27;9.60;99.90
31391;DHT22;18022;45.492;11.548;2024-03-23T04:07:53;9.60;99.90
31391;DHT22;18022;45.492;11.548;2024-03-23T04:10:20;9.70;99.90
31391;DHT22;18022;45.492;11.548;2024-03-23T04:12:46;9.80;99.90
31391;DHT22;18022;45.492;11.548;2024-03-23T04:15:12;9.50;99.90
31391;DHT22;18022;45.492;11.548;2024-03-23T04:17:38;9.40;99.90
31391;DHT22;18022;45.492;11.548;2024-03-23T04:20:04;9.50;99.90
31391;DHT22;18022;45.492;11.548;2024-03-23T04:22:34;9.60;99.90
31391;DHT22;18022;45.492;11.548;2024-03-23T04:25:00;9.50;99.90
31391;DHT22;18022;45.492;11.548;2024-03-23T04:27:32;9.50;99.90
31391;DHT22;18022;45.492;11.548;2024-03-23T04:29:58;9.50;99.90
31391;DHT22;18022;45.492;11.548;2024-03-23T04:32:23;9.50;99.90
31391;DHT22;18022;45.492;11.548;2024-03-23T04:34:49;9.60;99.90
31391;DHT22;18022;45.492;11.548;2024-03-23T04:37:14;9.50;99.90
31391;DHT22;18022;45.492;11.548;2024-03-23T04:39:41;9.60;99.90
31391;DHT22;18022;45.492;11.548;2024-03-23T04:42:07;9.60;99.90
31391;DHT22;18022;45.492;11.548;2024-03-23T04:44:33;9.60;99.90
31391;DHT22;18022;45.492;11.548;2024-03-23T04:46:59;9.70;99.90
31391;DHT22;18022;45.492;11.548;2024-03-23T04:49:25;9.70;99.90
31391;DHT22;18022;45.492;11.548;2024-03-23T04:51:50;9.60;99.90
31391;DHT22;18022;45.492;11.548;2024-03-23T04:54:16;9.50;99.90
31391;DHT22;18022;45.492;11.548;2024-03-23T04:56:41;9.10;99.90
31391;DHT22;18022;45.492;11.548;2024-03-23T04:59:07;9.00;99.90
31391;DHT22;18022;45.492;11.548;2024-03-23T05:01:34;8.90;99.90
31391;DHT22;18022;45.492;11.548;2024-03-23T05:03:59;8.80;99.90
31391;DHT22;18022;45.492;11.548;2024-03-23T05:06:25;8.70;99.90
31391;DHT22;18022;45.492;11.548;2024-03-23T05:08:51;8.70;99.90
31391;DHT22;18022;45.492;11.548;2024-03-23T05:11:17;8.90;99.90
31391;DHT22;18022;45.492;11.548;2024-03-23T05:13:43;8.90;99.90
31391;DHT22;18022;45.492;11.548;2024-03-23T05:16:09;8.90;99.90
31391;DHT22;18022;45.492;11.548;2024-03-23T05:18:35;8.90;99.90
31391;DHT22;18022;45.492;11.548;2024-03-23T05:21:01;8.70;99.90
31391;DHT22;18022;45.492;11.548;2024-03-23T05:23:28;8.80;99.90
31391;DHT22;18022;45.492;11.548;2024-03-23T05:25:54;8.90;99.90
31391;DHT22;18022;45.492;11.548;2024-03-23T05:28:20;8.90;99.90
31391;DHT22;18022;45.492;11.548;2024-03-23T05:30:53;8.90;99.90
31391;DHT22;18022;45.492;11.548;2024-03-23T05:33:19;8.90;99.90
31391;DHT22;18022;45.492;11.548;2024-03-23T05:35:45;8.70;99.90
31391;DHT22;18022;45.492;11.548;2024-03-23T05:38:11;8.70;99.90
31391;DHT22;18022;45.492;11.548;2024-03-23T05:40:36;8.80;99.90
31391;DHT22;18022;45.492;11.548;2024-03-23T05:43:06;8.90;99.90
31391;DHT22;18022;45.492;11.548;2024-03-23T05:45:31;9.00;99.90
31391;DHT22;18022;45.492;11.548;2024-03-23T05:47:57;9.10;99.90
31391;DHT22;18022;45.492;11.548;2024-03-23T05:50:23;9.00;99.90
31391;DHT22;18022;45.492;11.548;2024-03-23T05:52:50;9.10;99.90
31391;DHT22;18022;45.492;11.548;2024-03-23T05:55:16;9.20;99.90
31391;DHT22;18022;45.492;11.548;2024-03-23T05:57:41;9.40;99.90
31391;DHT22;18022;45.492;11.548;2024-03-23T06:00:07;9.40;99.90
31391;DHT22;18022;45.492;11.548;2024-03-23T06:02:44;9.40;99.90
31391;DHT22;18022;45.492;11.548;2024-03-23T06:05:13;9.60;99.90
31391;DHT22;18022;45.492;11.548;2024-03-23T06:07:39;9.70;99.90
31391;DHT22;18022;45.492;11.548;2024-03-23T06:10:05;9.80;99.90
31391;DHT22;18022;45.492;11.548;2024-03-23T06:12:31;9.90;99.90
31391;DHT22;18022;45.492;11.548;2024-03-23T06:14:57;10.00;99.90
31391;DHT22;18022;45.492;11.548;2024-03-23T06:17:23;10.20;99.90
31391;DHT22;18022;45.492;11.548;2024-03-23T06:19:49;10.20;99.90
31391;DHT22;18022;45.492;11.548;2024-03-23T06:22:15;10.30;99.90
31391;DHT22;18022;45.492;11.548;2024-03-23T06:24:40;10.30;99.90
31391;DHT22;18022;45.492;11.548;2024-03-23T06:27:06;10.30;99.90
31391;DHT22;18022;45.492;11.548;2024-03-23T06:29:32;10.40;99.90
31391;DHT22;18022;45.492;11.548;2024-03-23T06:31:57;10.50;99.90
31391;DHT22;18022;45.492;11.548;2024-03-23T06:34:23;10.50;99.90
31391;DHT22;18022;45.492;11.548;2024-03-23T06:36:49;10.50;99.90
31391;DHT22;18022;45.492;11.548;2024-03-23T06:39:16;10.50;99.90
31391;DHT22;18022;45.492;11.548;2024-03-23T06:41:54;10.50;99.90
31391;DHT22;18022;45.492;11.548;2024-03-23T06:44:20;10.80;99.90
31391;DHT22;18022;45.492;11.548;2024-03-23T06:46:46;10.80;99.90
31391;DHT22;18022;45.492;11.548;2024-03-23T06:49:13;10.70;99.90
31391;DHT22;18022;45.492;11.548;2024-03-23T06:51:38;10.70;99.90
31391;DHT22;18022;45.492;11.548;2024-03-23T06:54:05;10.80;99.90
31391;DHT22;18022;45.492;11.548;2024-03-23T06:56:30;10.90;99.90
31391;DHT22;18022;45.492;11.548;2024-03-23T06:58:57;11.00;99.90
31391;DHT22;18022;45.492;11.548;2024-03-23T07:01:22;11.00;99.90
31391;DHT22;18022;45.492;11.548;2024-03-23T07:03:48;11.00;99.90
31391;DHT22;18022;45.492;11.548;2024-03-23T07:06:13;11.10;99.90
31391;DHT22;18022;45.492;11.548;2024-03-23T07:08:39;11.10;99.90
31391;DHT22;18022;45.492;11.548;2024-03-23T07:11:05;11.10;99.90
31391;DHT22;18022;45.492;11.548;2024-03-23T07:13:31;11.20;99.90
31391;DHT22;18022;45.492;11.548;2024-03-23T07:15:57;11.10;99.90
31391;DHT22;18022;45.492;11.548;2024-03-23T07:18:23;11.30;99.90
31391;DHT22;18022;45.492;11.548;2024-03-23T07:20:56;11.30;99.90
31391;DHT22;18022;45.492;11.548;2024-03-23T07:23:23;11.30;99.90
31391;DHT22;18022;45.492;11.548;2024-03-23T07:28:24;11.60;99.90
31391;DHT22;18022;45.492;11.548;2024-03-23T07:31:02;11.90;99.90
31391;DHT22;18022;45.492;11.548;2024-03-23T07:33:28;11.90;99.90
31391;DHT22;18022;45.492;11.548;2024-03-23T07:35:53;11.90;99.90
31391;DHT22;18022;45.492;11.548;2024-03-23T07:38:19;12.20;99.90
31391;DHT22;18022;45.492;11.548;2024-03-23T07:40:46;12.40;99.90
31391;DHT22;18022;45.492;11.548;2024-03-23T07:43:12;12.50;99.90
31391;DHT22;18022;45.492;11.548;2024-03-23T07:45:37;12.60;99.90
31391;DHT22;18022;45.492;11.548;2024-03-23T07:48:04;12.60;99.90
31391;DHT22;18022;45.492;11.548;2024-03-23T07:50:29;12.60;99.90
31391;DHT22;18022;45.492;11.548;2024-03-23T07:52:55;12.80;99.90
31391;DHT22;18022;45.492;11.548;2024-03-23T07:55:21;13.00;99.90
31391;DHT22;18022;45.492;11.548;2024-03-23T07:57:47;13.10;99.90
31391;DHT22;18022;45.492;11.548;2024-03-23T08:00:14;13.30;99.90
31391;DHT22;18022;45.492;11.548;2024-03-23T08:02:40;13.40;99.90
31391;DHT22;18022;45.492;11.548;2024-03-23T08:05:06;13.50;99.90
31391;DHT22;18022;45.492;11.548;2024-03-23T08:07:33;13.60;99.90
31391;DHT22;18022;45.492;11.548;2024-03-23T08:09:58;13.70;99.90
31391;DHT22;18022;45.492;11.548;2024-03-23T08:12:24;13.80;99.90
31391;DHT22;18022;45.492;11.548;2024-03-23T08:14:50;13.90;99.90
31391;DHT22;18022;45.492;11.548;2024-03-23T08:17:16;14.00;99.90
31391;DHT22;18022;45.492;11.548;2024-03-23T08:19:41;14.10;99.90
31391;DHT22;18022;45.492;11.548;2024-03-23T08:22:07;14.10;99.90
31391;DHT22;18022;45.492;11.548;2024-03-23T08:24:34;14.10;99.90
31391;DHT22;18022;45.492;11.548;2024-03-23T08:27:00;14.20;99.90
31391;DHT22;18022;45.492;11.548;2024-03-23T08:29:26;14.30;99.90
31391;DHT22;18022;45.492;11.548;2024-03-23T08:31:51;14.30;99.90
31391;DHT22;18022;45.492;11.548;2024-03-23T08:34:17;14.40;99.90
31391;DHT22;18022;45.492;11.548;2024-03-23T08:36:43;14.50;99.90
31391;DHT22;18022;45.492;11.548;2024-03-23T08:39:09;14.50;99.90
31391;DHT22;18022;45.492;11.548;2024-03-23T08:41:35;14.50;99.90
31391;DHT22;18022;45.492;11.548;2024-03-23T08:44:00;14.50;99.90
31391;DHT22;18022;45.492;11.548;2024-03-23T08:46:26;14.50;99.90
31391;DHT22;18022;45.492;11.548;2024-03-23T08:48:52;14.50;99.90
31391;DHT22;18022;45.492;11.548;2024-03-23T08:51:18;14.60;99.90
31391;DHT22;18022;45.492;11.548;2024-03-23T08:53:44;14.70;99.90
31391;DHT22;18022;45.492;11.548;2024-03-23T08:56:11;14.90;99.90
31391;DHT22;18022;45.492;11.548;2024-03-23T08:58:37;14.80;99.90
31391;DHT22;18022;45.492;11.548;2024-03-23T09:01:11;14.80;99.90
31391;DHT22;18022;45.492;11.548;2024-03-23T09:03:40;14.90;99.90
31391;DHT22;18022;45.492;11.548;2024-03-23T09:06:11;15.00;99.90
31391;DHT22;18022;45.492;11.548;2024-03-23T09:08:37;14.90;99.90
31391;DHT22;18022;45.492;11.548;2024-03-23T09:11:07;15.00;99.90
31391;DHT22;18022;45.492;11.548;2024-03-23T09:13:37;15.10;99.90
31391;DHT22;18022;45.492;11.548;2024-03-23T09:16:04;15.30;99.90
31391;DHT22;18022;45.492;11.548;2024-03-23T09:18:32;15.20;99.90
31391;DHT22;18022;45.492;11.548;2024-03-23T09:20:58;15.30;99.90
31391;DHT22;18022;45.492;11.548;2024-03-23T09:23:24;15.60;99.90
31391;DHT22;18022;45.492;11.548;2024-03-23T09:25:50;15.60;99.90
31391;DHT22;18022;45.492;11.548;2024-03-23T09:28:15;15.60;99.90
31391;DHT22;18022;45.492;11.548;2024-03-23T09:30:41;15.70;99.90
31391;DHT22;18022;45.492;11.548;2024-03-23T09:33:12;15.80;99.90
31391;DHT22;18022;45.492;11.548;2024-03-23T09:35:42;15.80;99.90
31391;DHT22;18022;45.492;11.548;2024-03-23T09:38:08;15.80;99.90
31391;DHT22;18022;45.492;11.548;2024-03-23T09:40:43;15.80;99.90
31391;DHT22;18022;45.492;11.548;2024-03-23T09:43:09;15.90;99.90
31391;DHT22;18022;45.492;11.548;2024-03-23T09:45:39;16.00;99.90
31391;DHT22;18022;45.492;11.548;2024-03-23T09:48:09;16.10;99.90
31391;DHT22;18022;45.492;11.548;2024-03-23T09:50:39;16.10;99.90
31391;DHT22;18022;45.492;11.548;2024-03-23T09:53:12;16.10;99.90
31391;DHT22;18022;45.492;11.548;2024-03-23T09:55:39;16.20;99.90
31391;DHT22;18022;45.492;11.548;2024-03-23T09:58:05;16.20;99.90
31391;DHT22;18022;45.492;11.548;2024-03-23T10:00:32;16.30;99.90
31391;DHT22;18022;45.492;11.548;2024-03-23T10:03:01;16.20;99.90
31391;DHT22;18022;45.492;11.548;2024-03-23T10:05:29;16.40;99.90
31391;DHT22;18022;45.492;11.548;2024-03-23T10:07:55;16.80;99.90
31391;DHT22;18022;45.492;11.548;2024-03-23T10:10:20;16.70;99.90
31391;DHT22;18022;45.492;11.548;2024-03-23T10:12:49;16.80;99.90
31391;DHT22;18022;45.492;11.548;2024-03-23T10:15:20;17.00;99.90
31391;DHT22;18022;45.492;11.548;2024-03-23T10:17:46;17.00;99.90
31391;DHT22;18022;45.492;11.548;2024-03-23T10:20:12;17.10;99.90
31391;DHT22;18022;45.492;11.548;2024-03-23T10:22:38;17.10;99.90
31391;DHT22;18022;45.492;11.548;2024-03-23T10:25:09;17.20;99.90
31391;DHT22;18022;45.492;11.548;2024-03-23T10:27:34;17.40;99.90
31391;DHT22;18022;45.492;11.548;2024-03-23T10:30:10;17.50;99.90
31391;DHT22;18022;45.492;11.548;2024-03-23T10:32:37;17.70;99.90
31391;DHT22;18022;45.492;11.548;2024-03-23T10:37:44;18.00;99.90
31391;DHT22;18022;45.492;11.548;2024-03-23T10:40:11;17.90;99.90
31391;DHT22;18022;45.492;11.548;2024-03-23T10:42:38;17.80;99.90
31391;DHT22;18022;45.492;11.548;2024-03-23T10:45:06;17.80;99.90
31391;DHT22;18022;45.492;11.548;2024-03-23T10:47:36;17.60;99.90
31391;DHT22;18022;45.492;11.548;2024-03-23T10:50:03;17.70;99.90
31391;DHT22;18022;45.492;11.548;2024-03-23T10:52:31;17.80;99.90
31391;DHT22;18022;45.492;11.548;2024-03-23T10:54:57;17.90;99.90
31391;DHT22;18022;45.492;11.548;2024-03-23T10:57:26;17.90;99.90
31391;DHT22;18022;45.492;11.548;2024-03-23T10:59:55;18.30;99.90
31391;DHT22;18022;45.492;11.548;2024-03-23T11:02:22;18.40;99.40
31391;DHT22;18022;45.492;11.548;2024-03-23T11:04:48;18.40;99.40
31391;DHT22;18022;45.492;11.548;2024-03-23T11:07:32;18.50;99.20
31391;DHT22;18022;45.492;11.548;2024-03-23T11:09:59;18.70;99.90
31391;DHT22;18022;45.492;11.548;2024-03-23T11:15:04;19.10;99.10
31391;DHT22;18022;45.492;11.548;2024-03-23T11:17:30;19.10;99.90
31391;DHT22;18022;45.492;11.548;2024-03-23T11:20:00;19.30;99.80
31391;DHT22;18022;45.492;11.548;2024-03-23T11:22:39;19.60;99.30
31391;DHT22;18022;45.492;11.548;2024-03-23T11:25:23;19.40;99.80
31391;DHT22;18022;45.492;11.548;2024-03-23T11:27:57;19.60;99.60
31391;DHT22;18022;45.492;11.548;2024-03-23T11:30:27;20.00;99.40
31391;DHT22;18022;45.492;11.548;2024-03-23T11:32:56;19.80;98.40
31391;DHT22;18022;45.492;11.548;2024-03-23T11:35:32;20.00;99.00
31391;DHT22;18022;45.492;11.548;2024-03-23T11:40:30;20.00;97.50
31391;DHT22;18022;45.492;11.548;2024-03-23T11:43:02;20.10;97.80
31391;DHT22;18022;45.492;11.548;2024-03-23T11:45:28;20.10;98.20
31391;DHT22;18022;45.492;11.548;2024-03-23T11:48:09;20.00;98.60
31391;DHT22;18022;45.492;11.548;2024-03-23T11:50:37;20.00;98.10
31391;DHT22;18022;45.492;11.548;2024-03-23T11:53:29;20.10;98.20
31391;DHT22;18022;45.492;11.548;2024-03-23T11:55:59;20.10;98.80
31391;DHT22;18022;45.492;11.548;2024-03-23T11:58:28;20.30;97.60
31391;DHT22;18022;45.492;11.548;2024-03-23T12:01:01;20.50;97.60
31391;DHT22;18022;45.492;11.548;2024-03-23T12:03:29;20.80;98.10
31391;DHT22;18022;45.492;11.548;2024-03-23T12:05:57;21.20;97.90
31391;DHT22;18022;45.492;11.548;2024-03-23T12:08:24;21.30;97.50
31391;DHT22;18022;45.492;11.548;2024-03-23T12:10:52;21.40;97.40
31391;DHT22;18022;45.492;11.548;2024-03-23T12:13:21;21.30;97.00
31391;DHT22;18022;45.492;11.548;2024-03-23T12:15:49;21.20;96.80
31391;DHT22;18022;45.492;11.548;2024-03-23T12:18:15;21.10;96.10
31391;DHT22;18022;45.492;11.548;2024-03-23T12:20:41;21.10;96.30
31391;DHT22;18022;45.492;11.548;2024-03-23T12:23:11;21.30;96.40
31391;DHT22;18022;45.492;11.548;2024-03-23T12:25:38;21.30;96.30
31391;DHT22;18022;45.492;11.548;2024-03-23T12:28:04;21.30;96.60
31391;DHT22;18022;45.492;11.548;2024-03-23T12:30:34;21.40;96.40
31391;DHT22;18022;45.492;11.548;2024-03-23T12:33:00;21.40;96.40
31391;DHT22;18022;45.492;11.548;2024-03-23T12:35:26;21.60;96.20
31391;DHT22;18022;45.492;11.548;2024-03-23T12:37:52;21.50;97.00
31391;DHT22;18022;45.492;11.548;2024-03-23T12:40:17;21.20;96.50
31391;DHT22;18022;45.492;11.548;2024-03-23T12:42:43;21.40;96.40
31391;DHT22;18022;45.492;11.548;2024-03-23T12:45:09;21.40;96.80
31391;DHT22;18022;45.492;11.548;2024-03-23T12:47:35;21.30;96.30
31391;DHT22;18022;45.492;11.548;2024-03-23T12:50:00;21.40;96.10
31391;DHT22;18022;45.492;11.548;2024-03-23T12:52:26;21.60;95.00
31391;DHT22;18022;45.492;11.548;2024-03-23T12:54:56;21.60;95.50
31391;DHT22;18022;45.492;11.548;2024-03-23T12:57:25;21.50;95.40
31391;DHT22;18022;45.492;11.548;2024-03-23T12:59:52;21.80;95.80
31391;DHT22;18022;45.492;11.548;2024-03-23T13:02:21;21.30;94.60
31391;DHT22;18022;45.492;11.548;2024-03-23T13:04:50;20.60;95.10
31391;DHT22;18022;45.492;11.548;2024-03-23T13:07:17;20.50;95.70
31391;DHT22;18022;45.492;11.548;2024-03-23T13:09:43;20.10;92.00
31391;DHT22;18022;45.492;11.548;2024-03-23T13:12:09;20.00;91.60
31391;DHT22;18022;45.492;11.548;2024-03-23T13:14:35;19.90;91.20
31391;DHT22;18022;45.492;11.548;2024-03-23T13:17:01;19.70;91.30
31391;DHT22;18022;45.492;11.548;2024-03-23T13:19:28;19.80;92.10
31391;DHT22;18022;45.492;11.548;2024-03-23T13:21:59;20.00;92.70
31391;DHT22;18022;45.492;11.548;2024-03-23T13:24:26;20.40;92.20
31391;DHT22;18022;45.492;11.548;2024-03-23T13:26:53;20.40;91.90
31391;DHT22;18022;45.492;11.548;2024-03-23T13:29:19;20.20;91.70
31391;DHT22;18022;45.492;11.548;2024-03-23T13:31:48;20.20;92.30
31391;DHT22;18022;45.492;11.548;2024-03-23T13:34:15;20.10;92.20
31391;DHT22;18022;45.492;11.548;2024-03-23T13:36:47;19.80;92.20
31391;DHT22;18022;45.492;11.548;2024-03-23T13:39:13;19.80;93.30
31391;DHT22;18022;45.492;11.548;2024-03-23T13:41:46;19.80;93.30
31391;DHT22;18022;45.492;11.548;2024-03-23T13:44:12;19.70;93.00
31391;DHT22;18022;45.492;11.548;2024-03-23T13:46:42;19.60;93.10
31391;DHT22;18022;45.492;11.548;2024-03-23T13:49:24;19.60;93.10
31391;DHT22;18022;45.492;11.548;2024-03-23T13:51:52;19.70;93.30
31391;DHT22;18022;45.492;11.548;2024-03-23T13:54:17;19.80;93.30
31391;DHT22;18022;45.492;11.548;2024-03-23T13:56:43;19.80;93.30
31391;DHT22;18022;45.492;11.548;2024-03-23T13:59:09;19.90;92.80
31391;DHT22;18022;45.492;11.548;2024-03-23T14:01:35;20.00;93.30
31391;DHT22;18022;45.492;11.548;2024-03-23T14:04:01;20.10;93.80
31391;DHT22;18022;45.492;11.548;2024-03-23T14:06:27;20.00;92.80
31391;DHT22;18022;45.492;11.548;2024-03-23T14:08:53;19.90;92.90
31391;DHT22;18022;45.492;11.548;2024-03-23T14:11:19;19.80;93.20
31391;DHT22;18022;45.492;11.548;2024-03-23T14:13:44;19.80;93.80
31391;DHT22;18022;45.492;11.548;2024-03-23T14:16:10;19.70;93.60
31391;DHT22;18022;45.492;11.548;2024-03-23T14:18:36;19.70;94.10
31391;DHT22;18022;45.492;11.548;2024-03-23T14:21:02;19.50;93.80
31391;DHT22;18022;45.492;11.548;2024-03-23T14:23:29;19.50;94.00
31391;DHT22;18022;45.492;11.548;2024-03-23T14:25:55;19.40;93.40
31391;DHT22;18022;45.492;11.548;2024-03-23T14:28:24;19.40;93.70
31391;DHT22;18022;45.492;11.548;2024-03-23T14:30:51;19.30;94.10
31391;DHT22;18022;45.492;11.548;2024-03-23T14:33:17;19.50;94.60
31391;DHT22;18022;45.492;11.548;2024-03-23T14:35:43;19.70;94.10
31391;DHT22;18022;45.492;11.548;2024-03-23T14:38:09;19.80;94.20
31391;DHT22;18022;45.492;11.548;2024-03-23T14:40:35;19.90;93.60
31391;DHT22;18022;45.492;11.548;2024-03-23T14:43:01;19.90;93.50
31391;DHT22;18022;45.492;11.548;2024-03-23T14:45:28;19.90;93.30
31391;DHT22;18022;45.492;11.548;2024-03-23T14:47:53;19.70;93.70
31391;DHT22;18022;45.492;11.548;2024-03-23T14:50:19;19.80;93.70
31391;DHT22;18022;45.492;11.548;2024-03-23T14:52:48;20.00;93.70
31391;DHT22;18022;45.492;11.548;2024-03-23T14:55:13;20.00;93.90
31391;DHT22;18022;45.492;11.548;2024-03-23T14:57:39;20.00;93.40
31391;DHT22;18022;45.492;11.548;2024-03-23T15:00:08;19.80;93.00
31391;DHT22;18022;45.492;11.548;2024-03-23T15:02:36;19.80;93.40
31391;DHT22;18022;45.492;11.548;2024-03-23T15:05:02;20.00;93.60
31391;DHT22;18022;45.492;11.548;2024-03-23T15:07:33;20.00;93.70
31391;DHT22;18022;45.492;11.548;2024-03-23T15:09:58;20.10;93.30
31391;DHT22;18022;45.492;11.548;2024-03-23T15:12:24;19.90;93.10
31391;DHT22;18022;45.492;11.548;2024-03-23T15:14:50;19.80;93.50
31391;DHT22;18022;45.492;11.548;2024-03-23T15:17:15;19.60;93.30
31391;DHT22;18022;45.492;11.548;2024-03-23T15:19:41;19.50;93.50
31391;DHT22;18022;45.492;11.548;2024-03-23T15:22:08;19.50;93.50
31391;DHT22;18022;45.492;11.548;2024-03-23T15:24:34;19.50;93.70
31391;DHT22;18022;45.492;11.548;2024-03-23T15:27:03;19.60;93.40
31391;DHT22;18022;45.492;11.548;2024-03-23T15:29:29;19.70;93.60
31391;DHT22;18022;45.492;11.548;2024-03-23T15:31:55;19.70;94.00
31391;DHT22;18022;45.492;11.548;2024-03-23T15:34:21;19.70;94.00
31391;DHT22;18022;45.492;11.548;2024-03-23T15:36:49;19.80;94.20
31391;DHT22;18022;45.492;11.548;2024-03-23T15:39:18;19.80;94.30
31391;DHT22;18022;45.492;11.548;2024-03-23T15:41:45;19.80;93.40
31391;DHT22;18022;45.492;11.548;2024-03-23T15:44:11;19.70;93.40
31391;DHT22;18022;45.492;11.548;2024-03-23T15:46:36;19.70;93.50
31391;DHT22;18022;45.492;11.548;2024-03-23T15:49:02;19.50;93.90
31391;DHT22;18022;45.492;11.548;2024-03-23T15:51:28;19.40;94.30
31391;DHT22;18022;45.492;11.548;2024-03-23T15:54:01;19.40;94.10
31391;DHT22;18022;45.492;11.548;2024-03-23T15:56:29;19.50;93.90
31391;DHT22;18022;45.492;11.548;2024-03-23T15:58:54;19.40;94.00
31391;DHT22;18022;45.492;11.548;2024-03-23T16:01:20;19.40;94.10
31391;DHT22;18022;45.492;11.548;2024-03-23T16:03:47;19.40;94.30
31391;DHT22;18022;45.492;11.548;2024-03-23T16:06:12;19.40;94.20
31391;DHT22;18022;45.492;11.548;2024-03-23T16:08:38;19.40;94.30
31391;DHT22;18022;45.492;11.548;2024-03-23T16:11:05;19.30;94.40
31391;DHT22;18022;45.492;11.548;2024-03-23T16:13:32;19.30;94.40
31391;DHT22;18022;45.492;11.548;2024-03-23T16:15:59;19.20;94.30
31391;DHT22;18022;45.492;11.548;2024-03-23T16:18:25;19.20;94.40
31391;DHT22;18022;45.492;11.548;2024-03-23T16:20:59;19.20;94.60